createdAt,value
2018-02-04T00:00:05.060Z,8.90
2018-02-04T00:02:32.692Z,8.80
2018-02-04T00:05:00.355Z,8.90
2018-02-04T00:07:28.295Z,8.80
2018-02-04T00:09:56.271Z,8.80
2018-02-04T00:12:23.860Z,8.80
2018-02-04T00:14:57.780Z,8.80
2018-02-04T00:17:25.432Z,8.80
2018-02-04T00:19:53.479Z,8.80
2018-02-04T00:22:33.012Z,8.80
2018-02-04T00:25:00.961Z,8.70
2018-02-04T00:27:28.557Z,8.70
2018-02-04T00:29:56.213Z,8.70
2018-02-04T00:32:23.856Z,8.70
2018-02-04T00:34:51.845Z,8.70
2018-02-04T00:37:19.804Z,8.70
2018-02-04T00:39:47.503Z,8.70
2018-02-04T00:42:15.583Z,8.70
2018-02-04T00:44:43.269Z,8.70
2018-02-04T00:47:10.877Z,8.70
2018-02-04T00:49:38.560Z,8.70
2018-02-04T00:52:06.632Z,8.70
2018-02-04T00:54:39.827Z,8.70
2018-02-04T00:57:07.475Z,8.70
2018-02-04T00:59:35.154Z,8.70
2018-02-04T01:02:02.811Z,8.70
2018-02-04T01:04:31.494Z,8.60
2018-02-04T01:06:59.714Z,8.70
2018-02-04T01:12:23.127Z,8.70
2018-02-04T01:14:51.027Z,8.60
2018-02-04T01:17:19.067Z,8.60
2018-02-04T01:19:46.752Z,8.60
2018-02-04T01:22:14.359Z,8.60
2018-02-04T01:24:42.308Z,8.60
2018-02-04T01:27:10.294Z,8.60
2018-02-04T01:29:37.954Z,8.60
2018-02-04T01:32:05.647Z,8.60
2018-02-04T01:34:33.690Z,8.60
2018-02-04T01:37:03.606Z,8.60
2018-02-04T01:39:31.267Z,8.50
2018-02-04T01:41:58.967Z,8.50
2018-02-04T01:44:26.598Z,8.50
2018-02-04T01:46:57.762Z,8.50
2018-02-04T01:49:25.394Z,8.50
2018-02-04T01:51:53.085Z,8.50
2018-02-04T01:54:21.756Z,8.50
2018-02-04T01:56:49.844Z,8.50
2018-02-04T01:59:17.455Z,8.50
2018-02-04T02:01:45.149Z,8.50
2018-02-04T02:04:12.782Z,8.50
2018-02-04T02:06:40.529Z,8.50
2018-02-04T02:09:08.131Z,8.50
2018-02-04T02:11:35.801Z,8.50
2018-02-04T02:14:03.422Z,8.50
2018-02-04T02:16:31.114Z,8.50
2018-02-04T02:19:03.686Z,8.40
2018-02-04T02:21:33.802Z,8.40
2018-02-04T02:24:02.191Z,8.40
2018-02-04T02:26:30.136Z,8.40
2018-02-04T02:28:57.841Z,8.40
2018-02-04T02:31:25.450Z,8.40
2018-02-04T02:33:57.886Z,8.40
2018-02-04T02:36:25.484Z,8.40
2018-02-04T02:38:57.661Z,8.40
2018-02-04T02:41:25.307Z,8.40
2018-02-04T02:43:52.968Z,8.40
2018-02-04T02:46:20.721Z,8.40
2018-02-04T02:48:48.747Z,8.40
2018-02-04T02:51:16.347Z,8.40
2018-02-04T02:53:43.894Z,8.40
2018-02-04T02:56:11.473Z,8.40
2018-02-04T02:58:39.146Z,8.40
2018-02-04T03:01:06.803Z,8.40
2018-02-04T03:03:34.532Z,8.30
2018-02-04T03:06:09.370Z,8.40
2018-02-04T03:08:37.424Z,8.40
2018-02-04T03:11:05.417Z,8.30
2018-02-04T03:13:32.966Z,8.30
2018-02-04T03:16:01.044Z,8.30
2018-02-04T03:18:28.622Z,8.30
2018-02-04T03:20:56.296Z,8.30
2018-02-04T03:23:23.939Z,8.30
2018-02-04T03:25:57.765Z,8.30
2018-02-04T03:28:25.427Z,8.30
2018-02-04T03:30:53.487Z,8.30
2018-02-04T03:33:21.147Z,8.30
2018-02-04T03:35:48.839Z,8.30
2018-02-04T03:38:16.477Z,8.30
2018-02-04T03:40:44.123Z,8.30
2018-02-04T03:43:11.798Z,8.30
2018-02-04T03:45:39.467Z,8.20
2018-02-04T03:48:07.116Z,8.20
2018-02-04T03:50:45.505Z,8.30
2018-02-04T03:53:13.074Z,8.30
2018-02-04T03:55:45.856Z,8.30
2018-02-04T03:58:13.523Z,8.20
2018-02-04T04:00:41.192Z,8.20
2018-02-04T04:03:08.856Z,8.20
2018-02-04T04:05:36.898Z,8.20
2018-02-04T04:08:04.544Z,8.20
2018-02-04T04:10:33.877Z,8.20
2018-02-04T04:13:01.543Z,8.20
2018-02-04T04:15:29.240Z,8.20
2018-02-04T04:17:57.252Z,8.20
2018-02-04T04:20:27.796Z,8.20
2018-02-04T04:22:55.460Z,8.10
2018-02-04T04:25:23.136Z,8.20
2018-02-04T04:27:50.766Z,8.10
2018-02-04T04:30:18.819Z,8.20
2018-02-04T04:32:53.239Z,8.20
2018-02-04T04:35:26.878Z,8.20
2018-02-04T04:38:17.981Z,8.20
2018-02-04T04:40:45.745Z,8.20
2018-02-04T04:43:13.431Z,8.20
2018-02-04T04:45:41.091Z,8.20
2018-02-04T04:48:08.799Z,8.20
2018-02-04T04:50:37.029Z,8.10
2018-02-04T04:53:05.665Z,8.10
2018-02-04T04:55:33.327Z,8.10
2018-02-04T04:58:01.252Z,8.10
2018-02-04T05:00:28.854Z,8.10
2018-02-04T05:03:09.187Z,8.10
2018-02-04T05:05:36.778Z,8.10
2018-02-04T05:08:04.338Z,8.10
2018-02-04T05:10:31.995Z,8.10
2018-02-04T05:12:59.679Z,8.10
2018-02-04T05:15:27.328Z,8.10
2018-02-04T05:17:54.964Z,8.00
2018-02-04T05:20:22.508Z,8.00
2018-02-04T05:22:50.487Z,8.00
2018-02-04T05:25:18.051Z,8.00
2018-02-04T05:27:46.687Z,8.00
2018-02-04T05:30:14.726Z,8.00
2018-02-04T05:32:45.902Z,8.00
2018-02-04T05:35:13.565Z,8.00
2018-02-04T05:37:41.175Z,8.00
2018-02-04T05:40:09.866Z,8.00
2018-02-04T05:42:37.522Z,8.00
2018-02-04T05:45:05.190Z,8.00
2018-02-04T05:47:33.307Z,8.00
2018-02-04T05:50:00.912Z,8.00
2018-02-04T05:52:28.580Z,8.00
2018-02-04T05:54:57.883Z,8.00
2018-02-04T05:57:25.535Z,8.00
2018-02-04T05:59:53.185Z,8.00
2018-02-04T06:02:21.153Z,8.00
2018-02-04T06:04:57.615Z,8.00
2018-02-04T06:07:25.202Z,8.00
2018-02-04T06:09:52.859Z,8.00
2018-02-04T06:12:20.519Z,8.00
2018-02-04T06:14:48.609Z,8.00
2018-02-04T06:17:16.691Z,8.00
2018-02-04T06:19:44.376Z,8.00
2018-02-04T06:22:12.422Z,8.00
2018-02-04T06:24:45.786Z,8.00
2018-02-04T06:27:13.762Z,8.00
2018-02-04T06:29:41.309Z,8.00
2018-02-04T06:32:09.013Z,8.00
2018-02-04T06:34:36.644Z,8.00
2018-02-04T06:37:05.013Z,8.00
2018-02-04T06:39:32.580Z,8.00
2018-02-04T06:42:00.205Z,8.00
2018-02-04T06:44:33.812Z,8.00
2018-02-04T06:47:01.764Z,8.00
2018-02-04T06:49:33.873Z,7.90
2018-02-04T06:52:03.786Z,7.90
2018-02-04T06:54:31.426Z,7.90
2018-02-04T06:57:03.822Z,8.00
2018-02-04T06:59:31.473Z,8.00
2018-02-04T07:01:59.123Z,8.00
2018-02-04T07:04:26.788Z,8.00
2018-02-04T07:06:54.457Z,8.00
2018-02-04T07:09:27.840Z,8.00
2018-02-04T07:11:55.538Z,8.00
2018-02-04T07:14:23.574Z,8.10
2018-02-04T07:16:51.231Z,8.20
2018-02-04T07:19:18.906Z,8.40
2018-02-04T07:21:46.575Z,8.60
2018-02-04T07:24:14.668Z,8.90
2018-02-04T07:26:42.295Z,9.20
2018-02-04T07:29:09.955Z,9.60
2018-02-04T07:31:38.010Z,9.90
2018-02-04T07:34:05.678Z,10.10
2018-02-04T07:36:33.357Z,10.30
2018-02-04T07:39:01.003Z,10.50
2018-02-04T07:41:28.651Z,10.70
2018-02-04T07:43:56.363Z,10.90
2018-02-04T07:46:24.801Z,11.00
2018-02-04T07:48:52.528Z,11.10
2018-02-04T07:51:20.101Z,11.30
2018-02-04T07:53:48.033Z,11.40
2018-02-04T07:56:15.747Z,11.50
2018-02-04T07:58:43.751Z,11.60
2018-02-04T08:01:11.443Z,11.70
2018-02-04T08:03:53.767Z,11.80
2018-02-04T08:06:28.029Z,11.90
2018-02-04T08:08:57.562Z,12.00
2018-02-04T08:11:26.065Z,12.10
2018-02-04T08:13:54.306Z,12.10
2018-02-04T08:16:21.952Z,12.20
2018-02-04T08:18:49.651Z,12.30
2018-02-04T08:21:17.661Z,12.40
2018-02-04T08:23:45.333Z,12.40
2018-02-04T08:26:13.006Z,12.50
2018-02-04T08:28:40.648Z,12.50
2018-02-04T08:31:08.357Z,12.50
2018-02-04T08:33:36.407Z,12.60
2018-02-04T08:36:09.965Z,12.60
2018-02-04T08:38:37.655Z,12.70
2018-02-04T08:41:05.323Z,12.80
2018-02-04T08:43:33.031Z,12.80
2018-02-04T08:46:01.026Z,12.90
2018-02-04T08:48:34.024Z,13.00
2018-02-04T08:51:01.732Z,13.00
2018-02-04T08:53:29.810Z,13.10
2018-02-04T08:55:57.838Z,13.10
2018-02-04T08:58:25.544Z,13.10
2018-02-04T09:00:53.524Z,13.10
2018-02-04T09:03:21.067Z,13.20
2018-02-04T09:05:49.095Z,13.30
2018-02-04T09:08:16.749Z,13.30
2018-02-04T09:10:44.382Z,13.30
2018-02-04T09:13:12.036Z,13.40
2018-02-04T09:15:39.763Z,13.40
2018-02-04T09:18:07.341Z,13.50
2018-02-04T09:20:45.591Z,13.50
2018-02-04T09:23:13.147Z,13.50
2018-02-04T09:25:40.814Z,13.50
2018-02-04T09:28:08.557Z,13.60
2018-02-04T09:30:36.126Z,13.70
2018-02-04T09:33:03.798Z,13.70
2018-02-04T09:35:31.476Z,13.70
2018-02-04T09:37:59.138Z,13.80
2018-02-04T09:40:28.022Z,13.80
2018-02-04T09:42:55.627Z,13.80
2018-02-04T09:45:23.604Z,13.90
2018-02-04T09:47:51.558Z,13.90
2018-02-04T09:50:19.119Z,14.00
2018-02-04T09:52:47.112Z,14.00
2018-02-04T09:55:14.760Z,14.00
2018-02-04T09:57:42.905Z,14.00
2018-02-04T10:00:10.923Z,14.10
2018-02-04T10:02:40.078Z,14.10
2018-02-04T10:05:08.084Z,14.20
2018-02-04T10:07:35.806Z,14.20
2018-02-04T10:10:03.907Z,14.20
2018-02-04T10:12:31.528Z,14.20
2018-02-04T10:14:59.552Z,14.30
2018-02-04T10:17:27.245Z,14.30
2018-02-04T10:19:55.278Z,14.40
2018-02-04T10:22:22.940Z,14.40
2018-02-04T10:24:50.631Z,14.40
2018-02-04T10:27:18.237Z,14.50
2018-02-04T10:29:45.949Z,14.50
2018-02-04T10:32:13.673Z,14.50
2018-02-04T10:34:42.061Z,14.40
2018-02-04T10:37:21.718Z,14.30
2018-02-04T10:39:49.259Z,14.30
2018-02-04T10:42:22.074Z,14.30
2018-02-04T10:44:50.406Z,14.40
2018-02-04T10:47:27.707Z,14.40
2018-02-04T10:50:18.425Z,14.40
2018-02-04T10:52:47.517Z,14.40
2018-02-04T10:55:29.958Z,14.50
2018-02-04T10:58:25.030Z,14.50
2018-02-04T11:00:52.883Z,14.70
2018-02-04T11:03:21.057Z,14.70
2018-02-04T11:05:49.971Z,14.80
2018-02-04T11:08:18.035Z,14.90
2018-02-04T11:10:45.992Z,15.00
2018-02-04T11:13:13.761Z,15.10
2018-02-04T11:15:42.224Z,15.20
2018-02-04T11:18:27.416Z,15.30
2018-02-04T11:20:55.143Z,15.40
2018-02-04T11:23:24.014Z,15.50
2018-02-04T11:25:56.120Z,15.50
2018-02-04T11:28:32.383Z,15.70
2018-02-04T11:31:15.907Z,15.70
2018-02-04T11:33:43.958Z,15.80
2018-02-04T11:36:16.043Z,15.90
2018-02-04T11:38:44.150Z,15.90
2018-02-04T11:41:12.828Z,16.00
2018-02-04T11:43:40.665Z,16.10
2018-02-04T11:46:09.029Z,16.20
2018-02-04T11:48:36.652Z,16.10
2018-02-04T11:51:04.751Z,16.20
2018-02-04T11:53:32.719Z,16.20
2018-02-04T11:56:00.485Z,16.20
2018-02-04T11:58:39.654Z,16.20
2018-02-04T12:01:07.644Z,16.30
2018-02-04T12:03:35.260Z,16.30
2018-02-04T12:06:04.144Z,16.30
2018-02-04T12:08:45.266Z,16.40
2018-02-04T12:11:21.712Z,16.40
2018-02-04T12:13:57.812Z,16.40
2018-02-04T12:16:33.805Z,16.50
2018-02-04T12:19:01.794Z,16.10
2018-02-04T12:21:34.134Z,15.60
2018-02-04T12:24:01.978Z,15.30
2018-02-04T12:26:29.818Z,15.20
2018-02-04T12:28:57.926Z,15.10
2018-02-04T12:31:26.083Z,15.00
2018-02-04T12:33:54.111Z,15.00
2018-02-04T12:36:22.159Z,15.10
2018-02-04T12:38:49.779Z,15.20
2018-02-04T12:41:17.724Z,15.40
2018-02-04T12:43:45.344Z,15.60
2018-02-04T12:46:12.994Z,15.60
2018-02-04T12:48:40.653Z,15.70
2018-02-04T12:51:08.300Z,15.70
2018-02-04T12:53:35.988Z,15.80
2018-02-04T12:56:03.680Z,15.80
2018-02-04T12:58:31.313Z,15.80
2018-02-04T13:00:58.950Z,15.80
2018-02-04T13:03:26.635Z,15.90
2018-02-04T13:05:54.279Z,15.90
2018-02-04T13:08:21.963Z,15.90
2018-02-04T13:10:50.046Z,15.90
2018-02-04T13:13:21.987Z,15.90
2018-02-04T13:15:49.746Z,15.90
2018-02-04T13:18:17.309Z,16.00
2018-02-04T13:20:44.987Z,16.00
2018-02-04T13:23:13.438Z,16.00
2018-02-04T13:25:41.138Z,16.00
2018-02-04T13:28:08.746Z,16.00
2018-02-04T13:30:36.827Z,16.00
2018-02-04T13:33:04.566Z,16.00
2018-02-04T13:35:32.623Z,16.00
2018-02-04T13:38:00.696Z,16.00
2018-02-04T13:40:34.040Z,16.10
2018-02-04T13:43:01.709Z,16.00
2018-02-04T13:45:29.438Z,16.00
2018-02-04T13:47:57.042Z,16.10
2018-02-04T13:50:25.280Z,16.10
2018-02-04T13:52:52.971Z,16.10
2018-02-04T13:55:20.605Z,16.10
2018-02-04T13:57:48.705Z,16.20
2018-02-04T14:00:16.745Z,16.20
2018-02-04T14:02:46.057Z,16.20
2018-02-04T14:05:13.729Z,16.20
2018-02-04T14:07:46.079Z,16.20
2018-02-04T14:10:13.980Z,16.20
2018-02-04T14:12:41.712Z,16.20
2018-02-04T14:15:09.264Z,16.20
2018-02-04T14:17:36.990Z,16.20
2018-02-04T14:20:05.026Z,16.20
2018-02-04T14:22:32.658Z,16.10
2018-02-04T14:25:00.789Z,16.20
2018-02-04T14:27:28.810Z,16.20
2018-02-04T14:29:56.538Z,16.20
2018-02-04T14:32:28.030Z,16.20
2018-02-04T14:34:55.686Z,16.30
2018-02-04T14:37:23.370Z,16.30
2018-02-04T14:39:51.020Z,16.20
2018-02-04T14:42:22.156Z,16.20
2018-02-04T14:44:52.075Z,16.20
2018-02-04T14:47:19.720Z,16.30
2018-02-04T14:49:47.346Z,16.30
2018-02-04T14:52:15.390Z,16.30
2018-02-04T14:57:29.235Z,16.30
2018-02-04T15:00:02.988Z,16.40
2018-02-04T15:02:34.359Z,16.40
2018-02-04T15:05:03.890Z,16.40
2018-02-04T15:07:31.529Z,16.30
2018-02-04T15:10:04.109Z,16.40
2018-02-04T15:12:32.497Z,16.30
2018-02-04T15:15:00.522Z,16.30
2018-02-04T15:17:28.913Z,16.40
2018-02-04T15:19:57.591Z,16.40
2018-02-04T15:22:25.534Z,16.40
2018-02-04T15:24:53.558Z,16.40
2018-02-04T15:27:21.208Z,16.40
2018-02-04T15:29:49.332Z,16.40
2018-02-04T15:32:17.004Z,16.40
2018-02-04T15:34:44.616Z,16.40
2018-02-04T15:37:12.647Z,16.40
2018-02-04T15:39:40.761Z,16.50
2018-02-04T15:42:09.242Z,16.50
2018-02-04T15:44:36.873Z,16.50
2018-02-04T15:47:04.500Z,16.50
2018-02-04T15:49:34.019Z,16.50
2018-02-04T15:52:04.770Z,16.40
2018-02-04T15:54:32.422Z,16.50
2018-02-04T15:57:00.512Z,16.50
2018-02-04T15:59:28.135Z,16.40
2018-02-04T16:01:55.686Z,16.50
2018-02-04T16:04:23.735Z,16.50
2018-02-04T16:06:51.331Z,16.60
2018-02-04T16:09:18.917Z,16.50
2018-02-04T16:11:46.476Z,16.40
2018-02-04T16:14:14.190Z,16.20
2018-02-04T16:16:41.835Z,16.20
2018-02-04T16:19:09.495Z,16.30
2018-02-04T16:21:37.501Z,16.30
2018-02-04T16:24:05.026Z,16.30
2018-02-04T16:26:32.629Z,16.30
2018-02-04T16:29:00.301Z,16.40
2018-02-04T16:31:27.936Z,16.40
2018-02-04T16:33:55.599Z,16.40
2018-02-04T16:36:23.264Z,16.50
2018-02-04T16:38:52.359Z,16.50
2018-02-04T16:41:20.102Z,16.50
2018-02-04T16:43:47.682Z,16.50
2018-02-04T16:46:15.352Z,16.50
2018-02-04T16:48:43.716Z,16.60
2018-02-04T16:51:11.709Z,16.60
2018-02-04T16:53:39.749Z,16.50
2018-02-04T16:56:07.324Z,16.50
2018-02-04T16:58:35.688Z,16.50
2018-02-04T17:01:03.282Z,16.50
2018-02-04T17:03:31.636Z,16.50
2018-02-04T17:05:59.709Z,16.50
2018-02-04T17:08:27.784Z,16.50
2018-02-04T17:10:56.128Z,16.60
2018-02-04T17:13:24.190Z,16.60
2018-02-04T17:15:52.534Z,16.60
2018-02-04T17:18:20.524Z,16.60
2018-02-04T17:20:48.152Z,16.60
2018-02-04T17:23:15.803Z,16.60
2018-02-04T17:25:51.950Z,16.60
2018-02-04T17:28:19.600Z,16.70
2018-02-04T17:30:47.595Z,16.70
2018-02-04T17:33:15.224Z,16.70
2018-02-04T17:36:08.974Z,16.80
2018-02-04T17:38:36.955Z,16.90
2018-02-04T17:43:58.128Z,16.90
2018-02-04T17:46:28.266Z,17.00
2018-02-04T17:48:55.878Z,17.10
2018-02-04T17:51:34.142Z,17.10
2018-02-04T17:54:04.100Z,17.10
2018-02-04T17:56:31.798Z,17.20
2018-02-04T17:58:59.448Z,17.10
2018-02-04T18:01:27.132Z,17.10
2018-02-04T18:03:54.869Z,17.20
2018-02-04T18:06:23.234Z,17.20
2018-02-04T18:08:50.909Z,17.10
2018-02-04T18:11:18.557Z,17.10
2018-02-04T18:13:46.228Z,17.10
2018-02-04T18:16:14.234Z,17.20
2018-02-04T18:18:46.262Z,16.90
2018-02-04T18:21:16.257Z,16.40
2018-02-04T18:23:43.939Z,16.40
2018-02-04T18:26:15.386Z,16.40
2018-02-04T18:31:17.673Z,16.00
2018-02-04T18:33:45.743Z,15.70
2018-02-04T18:36:13.561Z,15.50
2018-02-04T18:38:41.135Z,15.30
2018-02-04T18:41:09.151Z,15.00
2018-02-04T18:43:39.534Z,14.80
2018-02-04T18:46:08.948Z,14.70
2018-02-04T18:48:36.610Z,14.50
2018-02-04T18:51:04.408Z,14.40
2018-02-04T18:53:32.024Z,14.30
2018-02-04T18:56:00.073Z,14.20
2018-02-04T18:58:28.514Z,14.10
2018-02-04T19:00:56.610Z,14.00
2018-02-04T19:03:25.053Z,13.90
2018-02-04T19:05:52.688Z,13.80
2018-02-04T19:08:20.401Z,13.80
2018-02-04T19:10:48.165Z,13.70
2018-02-04T19:13:15.713Z,13.60
2018-02-04T19:15:43.361Z,13.50
2018-02-04T19:18:16.396Z,13.50
2018-02-04T19:20:44.428Z,13.40
2018-02-04T19:23:12.096Z,13.40
2018-02-04T19:25:40.134Z,13.30
2018-02-04T19:28:07.790Z,13.30
2018-02-04T19:30:35.431Z,13.20
2018-02-04T19:33:03.098Z,13.20
2018-02-04T19:35:31.321Z,13.10
2018-02-04T19:37:58.895Z,13.10
2018-02-04T19:40:26.542Z,13.00
2018-02-04T19:42:54.206Z,13.00
2018-02-04T19:45:22.213Z,12.90
2018-02-04T19:47:49.896Z,12.80
2018-02-04T19:50:18.279Z,12.80
2018-02-04T19:52:45.833Z,12.80
2018-02-04T19:55:13.579Z,12.80
2018-02-04T19:57:41.129Z,12.70
2018-02-04T20:00:09.349Z,12.70
2018-02-04T20:02:36.945Z,12.60
2018-02-04T20:05:04.597Z,12.60
2018-02-04T20:07:32.681Z,12.60
2018-02-04T20:10:00.315Z,12.50
2018-02-04T20:12:28.371Z,12.50
2018-02-04T20:14:57.107Z,12.50
2018-02-04T20:17:25.335Z,12.40
2018-02-04T20:19:53.693Z,12.30
2018-02-04T20:22:22.097Z,12.30
2018-02-04T20:24:50.544Z,12.20
2018-02-04T20:27:18.223Z,12.20
2018-02-04T20:29:46.318Z,12.20
2018-02-04T20:32:26.075Z,12.10
2018-02-04T20:34:53.805Z,12.10
2018-02-04T20:37:22.371Z,12.10
2018-02-04T20:39:50.036Z,12.10
2018-02-04T20:42:18.099Z,12.00
2018-02-04T20:44:46.243Z,12.00
2018-02-04T20:47:14.750Z,12.00
2018-02-04T20:49:42.696Z,11.90
2018-02-04T20:52:11.016Z,11.90
2018-02-04T20:54:39.116Z,11.90
2018-02-04T20:57:06.694Z,11.80
2018-02-04T20:59:34.324Z,11.80
2018-02-04T21:02:04.353Z,11.80
2018-02-04T21:04:32.421Z,11.80
2018-02-04T21:06:59.999Z,11.60
2018-02-04T21:09:28.010Z,11.60
2018-02-04T21:11:55.948Z,11.60
2018-02-04T21:14:23.666Z,11.60
2018-02-04T21:16:51.742Z,11.60
2018-02-04T21:19:19.760Z,11.50
2018-02-04T21:21:48.074Z,11.60
2018-02-04T21:24:16.130Z,11.50
2018-02-04T21:26:43.812Z,11.50
2018-02-04T21:29:11.437Z,11.50
2018-02-04T21:31:39.060Z,11.40
2018-02-04T21:34:07.204Z,11.40
2018-02-04T21:36:34.982Z,11.40
2018-02-04T21:39:02.531Z,11.40
2018-02-04T21:41:34.357Z,11.40
2018-02-04T21:44:01.987Z,11.40
2018-02-04T21:46:29.610Z,11.40
2018-02-04T21:48:57.689Z,11.30
2018-02-04T21:51:25.729Z,11.30
2018-02-04T21:53:53.846Z,11.30
2018-02-04T21:56:21.866Z,11.30
2018-02-04T21:58:49.500Z,11.30
2018-02-04T22:01:40.630Z,11.20
2018-02-04T22:06:51.527Z,11.20
2018-02-04T22:12:04.546Z,11.20
2018-02-04T22:14:33.852Z,11.10
2018-02-04T22:17:01.994Z,11.10
2018-02-04T22:19:29.647Z,11.00
2018-02-04T22:21:57.634Z,11.00
2018-02-04T22:24:25.583Z,11.00
2018-02-04T22:26:53.553Z,11.00
2018-02-04T22:29:21.119Z,11.00
2018-02-04T22:31:52.388Z,10.90
2018-02-04T22:34:20.123Z,10.90
2018-02-04T22:36:58.029Z,10.90
2018-02-04T22:39:25.642Z,10.90
2018-02-04T22:41:53.308Z,10.80
2018-02-04T22:44:21.381Z,10.80
2018-02-04T22:46:49.398Z,10.80
2018-02-04T22:49:17.119Z,10.80
2018-02-04T22:51:45.115Z,10.80
2018-02-04T22:54:13.068Z,10.80
2018-02-04T22:56:41.466Z,10.70
2018-02-04T22:59:09.172Z,10.70
2018-02-04T23:01:36.808Z,10.70
2018-02-04T23:04:04.462Z,10.60
2018-02-04T23:06:32.143Z,10.60
2018-02-04T23:09:00.330Z,10.60
2018-02-04T23:11:28.377Z,10.60
2018-02-04T23:13:55.890Z,10.60
2018-02-04T23:16:23.484Z,10.60
2018-02-04T23:18:51.052Z,10.60
2018-02-04T23:21:18.717Z,10.60
2018-02-04T23:23:46.357Z,10.50
2018-02-04T23:26:14.420Z,10.50
2018-02-04T23:28:42.096Z,10.50
2018-02-04T23:31:09.730Z,10.50
2018-02-04T23:33:37.687Z,10.50
2018-02-04T23:36:05.699Z,10.50
2018-02-04T23:38:33.315Z,10.50
2018-02-04T23:41:00.872Z,10.50
2018-02-04T23:43:28.452Z,10.50
2018-02-04T23:45:56.204Z,10.40
2018-02-04T23:48:24.145Z,10.40
2018-02-04T23:50:51.930Z,10.40
2018-02-04T23:53:22.391Z,10.40
2018-02-04T23:55:50.005Z,10.40
2018-02-04T23:58:17.526Z,10.30
